ROCKY ISLAND AK US NWS current weather conditions

sailwx.info

Wind from 360 at 41 knots gusting 53

Air temperature -6.0° C
Dewpoint -12.3° C

Last reported at 2020-Jan-18 13:32 UTC.
Time now 2020-Jan-18 14:30 UTC

Location: N 58°11' W 135°03'.
View on Google Maps.

See reports from other nearby stations

  
Tides and Currents Weather Stations Pressure Air Temp Water Temp Dewpoint Dewpoint Depression Visibility Wind Speed Wind Dir Waves Ship Positions
date/time (UTC)wind fromknots sea level pressurealtimeterstation pressurevisibilityair tempwater tempwave heightnotes
2020-Jan-18 13:32 360 41 gusting 53 -6.0
2020-Jan-18 13:23 360 41 gusting 54 -6.1
2020-Jan-18 13:13 360 41 gusting 55 -6.3
2020-Jan-18 13:02 360 40 gusting 49 -6.2
2020-Jan-18 12:52 360 40 gusting 53 -6.2
2020-Jan-18 12:42 360 41 gusting 53 -6.4
2020-Jan-18 12:32 360 41 gusting 52 -6.5
2020-Jan-18 12:22 360 41 gusting 54 -6.5
2020-Jan-18 12:12 360 41 gusting 52 -6.4
2020-Jan-18 12:02 360 42 gusting 54 -6.7
2020-Jan-18 11:52 360 42 gusting 55 -6.7
2020-Jan-18 11:42 360 41 gusting 54 -6.7
2020-Jan-18 11:32 360 41 gusting 54 -6.7
2020-Jan-18 11:22 360 41 gusting 54 -6.6
2020-Jan-18 11:12 360 42 gusting 53 -7.0
2020-Jan-18 11:02 360 41 gusting 52 -7.0
2020-Jan-18 10:52 360 41 gusting 53 -7.0
2020-Jan-18 10:42 360 41 gusting 55 -7.0
2020-Jan-18 10:32 360 41 gusting 53 -7.0
2020-Jan-18 10:23 360 41 gusting 52 -7.2
2020-Jan-18 10:12 360 41 gusting 53 -7.1
2020-Jan-18 10:02 360 42 gusting 55 -7.1
2020-Jan-18 09:52 360 41 gusting 65 -7.1
2020-Jan-18 09:42 360 42 gusting 55 -7.0
2020-Jan-18 09:33 360 41 gusting 51 -6.9
2020-Jan-18 09:22 360 41 gusting 54 -7.0
2020-Jan-18 09:12 360 41 gusting 55 -7.0
2020-Jan-18 09:02 360 41 gusting 52 -7.1
2020-Jan-18 08:52 360 44 gusting 55 -7.2
2020-Jan-18 08:42 360 41 gusting 53 -6.8
2020-Jan-18 08:32 360 41 gusting 53 -6.9
2020-Jan-18 08:23 360 41 gusting 54 -7.0
2020-Jan-18 08:12 360 42 gusting 53 -7.1
2020-Jan-18 08:02 360 41 gusting 52 -7.1
2020-Jan-18 07:52 360 40 gusting 49 -7.0
2020-Jan-18 07:42 360 42 gusting 56 -7.1
2020-Jan-18 07:32 360 41 gusting 51 -6.9
2020-Jan-18 07:23 360 41 gusting 51 -7.3
2020-Jan-18 07:13 360 41 gusting 54 -7.2
2020-Jan-18 07:02 360 41 gusting 54 -7.2
2020-Jan-18 06:52 360 41 gusting 51 -7.2
2020-Jan-18 06:42 350 40 gusting 49 -7.5
2020-Jan-18 06:32 360 40 gusting 49 -7.2
2020-Jan-18 06:22 360 39 gusting 49 -7.3
2020-Jan-18 06:12 360 41 gusting 53 -7.3
2020-Jan-18 06:02 360 39 gusting 49 -7.1
2020-Jan-18 05:52 360 36 gusting 47 -7.0
2020-Jan-18 05:42 360 39 gusting 49 -7.3
2020-Jan-18 05:32 360 39 gusting 49 -7.2
2020-Jan-18 05:22 360 39 gusting 51 -7.2
2020-Jan-18 05:12 360 38 gusting 49 -7.2
2020-Jan-18 05:02 360 40 gusting 49 -7.2
2020-Jan-18 04:52 360 40 gusting 48 -7.2
2020-Jan-18 04:42 360 39 gusting 48 -7.2
2020-Jan-18 04:32 360 40 gusting 55 -7.3
2020-Jan-18 04:23 360 39 gusting 48 -7.2
2020-Jan-18 04:12 360 38 gusting 48 -7.2
2020-Jan-18 04:02 360 38 gusting 46 -7.3
2020-Jan-18 03:52 360 39 gusting 49 -7.3
2020-Jan-18 03:42 360 38 gusting 48 -7.4
2020-Jan-18 03:32 360 38 gusting 48 -7.1
2020-Jan-18 03:22 360 35 gusting 46 -7.0
2020-Jan-18 03:12 010 35 gusting 48 -7.1
2020-Jan-18 03:02 360 36 gusting 47 -7.2
2020-Jan-18 02:53 360 34 gusting 48 -6.9
2020-Jan-18 02:43 360 34 gusting 48 -7.0
2020-Jan-18 02:33 360 34 gusting 47 -6.9
2020-Jan-18 02:22 360 34 gusting 46 -6.9
2020-Jan-18 02:12 360 36 gusting 48 -7.1
2020-Jan-18 02:03 360 38 gusting 49 -7.2
2020-Jan-18 01:52 360 36 gusting 49 -6.9
2020-Jan-18 01:42 360 36 gusting 49 -7.0
2020-Jan-18 01:33 360 35 gusting 46 -7.0
2020-Jan-18 01:23 360 35 gusting 44 -7.0
2020-Jan-18 01:13 360 35 gusting 45 -7.1
2020-Jan-18 01:02 360 35 gusting 45 -7.0
2020-Jan-18 00:53 360 35 gusting 45 -7.0
2020-Jan-18 00:42 360 34 gusting 44 -6.9
2020-Jan-18 00:32 010 32 gusting 54 -6.9
2020-Jan-18 00:22 010 33 gusting 45 -6.9
2020-Jan-18 00:12 020 24 gusting 41 -6.7
2020-Jan-17 23:52 020 20 gusting 41 -6.9
2020-Jan-17 23:42 020 19 gusting 39 -6.8
2020-Jan-17 23:33 030 17 gusting 31 -7.0
2020-Jan-17 23:22 030 18 gusting 39 -6.9
2020-Jan-17 23:12 030 17 gusting 38 -7.0
2020-Jan-17 23:02 030 17 gusting 35 -7.0
2020-Jan-17 22:52 030 15 gusting 32 -7.1
2020-Jan-17 22:42 050 15 gusting 27 -7.2
2020-Jan-17 22:32 030 13 gusting 28 -7.2
2020-Jan-17 22:22 030 15 gusting 29 -7.3
2020-Jan-17 22:13 030 17 gusting 29 -7.2
2020-Jan-17 22:02 030 14 gusting 27 -7.2
2020-Jan-17 21:52 030 15 gusting 28 -7.3
2020-Jan-17 21:42 030 13 gusting 26 -7.3
2020-Jan-17 21:33 030 13 gusting 28 -7.3
2020-Jan-17 21:22 040 17 gusting 29 -7.5
2020-Jan-17 21:13 050 17 gusting 28 -7.5
2020-Jan-17 21:02 050 15 gusting 27 -7.6
2020-Jan-17 20:53 050 14 gusting 27 -7.6
2020-Jan-17 20:42 040 14 gusting 27 -7.7
2020-Jan-17 20:33 050 15 gusting 27 -7.6
2020-Jan-17 20:23 050 15 gusting 27 -7.7
2020-Jan-17 20:13 050 15 gusting 26 -7.6
2020-Jan-17 20:03 050 15 gusting 27 -7.6
2020-Jan-17 19:52 040 13 gusting 27 -7.7
2020-Jan-17 19:43 050 14 gusting 28 -7.9
2020-Jan-17 19:33 060 15 gusting 27 -7.9
2020-Jan-17 19:23 050 15 gusting 26 -7.8
2020-Jan-17 19:13 050 15 gusting 27 -7.8
2020-Jan-17 19:02 050 15 gusting 27 -7.7
2020-Jan-17 18:52 060 15 gusting 27 -7.9
2020-Jan-17 18:43 060 17 gusting 27 -8.0
2020-Jan-17 18:33 060 17 gusting 28 -7.8
2020-Jan-17 18:23 050 17 gusting 31 -8.0
2020-Jan-17 18:13 060 17 gusting 27 -7.9
2020-Jan-17 18:03 060 17 gusting 27 -7.9
2020-Jan-17 17:53 060 17 gusting 27 -8.0
2020-Jan-17 17:43 070 18 gusting 27 -7.8
2020-Jan-17 17:33 070 17 gusting 27 -7.8
2020-Jan-17 17:22 060 18 gusting 28 -8.0
2020-Jan-17 17:13 060 15 gusting 26 -8.0
2020-Jan-17 17:03 070 19 gusting 28 -7.9
2020-Jan-17 16:53 060 19 gusting 27 -7.9
2020-Jan-17 16:42 060 18 gusting 31 -7.9
2020-Jan-17 16:33 060 18 gusting 28 -8.0
2020-Jan-17 16:23 060 19 gusting 29 -8.0
2020-Jan-17 16:13 060 18 gusting 27 -8.0
2020-Jan-17 16:02 060 18 gusting 27 -8.0
2020-Jan-17 15:53 060 19 gusting 28 -8.1
2020-Jan-17 15:43 060 19 gusting 29 -8.1
2020-Jan-17 15:33 060 18 gusting 27 -8.1
2020-Jan-17 15:23 060 18 gusting 27 -8.0
2020-Jan-17 15:13 070 19 gusting 31 -8.1
2020-Jan-17 15:03 060 19 gusting 31 -7.9
2020-Jan-17 14:53 070 19 gusting 33 -8.2
2020-Jan-17 14:43 060 18 gusting 27 -8.3
2020-Jan-17 14:33 060 18 gusting 28 -8.3
2020-Jan-17 14:22 050 17 gusting 29 -8.3
2020-Jan-17 14:13 060 19 gusting 29 -8.2
2020-Jan-17 14:02 050 18 gusting 28 -8.5
2020-Jan-17 13:53 050 18 gusting 29 -8.3
2020-Jan-17 13:42 040 17 gusting 27 -8.4
2020-Jan-17 13:33 030 13 gusting 24 -8.5
2020-Jan-17 13:23 040 13 gusting 28 -8.3
2020-Jan-17 13:13 030 13 gusting 25 -8.4
2020-Jan-17 13:02 050 13 gusting 21 -8.3
2020-Jan-17 12:52 040 13 gusting 24 -8.4
2020-Jan-17 12:42 050 13 gusting 24 -8.1
2020-Jan-17 12:32 060 14 gusting 25 -8.1
2020-Jan-17 12:22 060 14 gusting 24 -8.3
2020-Jan-17 12:12 060 15 gusting 31 -8.2
2020-Jan-17 12:02 070 17 gusting 25 -8.3
2020-Jan-17 11:52 070 18 gusting 28 -8.1
2020-Jan-17 11:42 070 18 gusting 27 -8.0
2020-Jan-17 11:32 060 18 gusting 34 -7.9
2020-Jan-17 11:22 060 21 gusting 34 -8.0
2020-Jan-17 11:12 060 20 gusting 33 -7.8
2020-Jan-17 11:02 060 20 gusting 33 -7.9
2020-Jan-17 10:52 060 20 gusting 34 -7.9
2020-Jan-17 10:42 060 21 gusting 34 -7.9
2020-Jan-17 10:32 060 20 gusting 33 -7.7
2020-Jan-17 10:23 060 21 gusting 34 -7.9
2020-Jan-17 10:13 060 19 gusting 32 -8.0
2020-Jan-17 10:02 050 19 gusting 31 -7.8
2020-Jan-17 09:52 060 20 gusting 35 -7.6
2020-Jan-17 09:42 060 20 gusting 35 -7.8
2020-Jan-17 09:32 060 18 gusting 27 -7.9
2020-Jan-17 09:22 060 20 gusting 29 -7.9
2020-Jan-17 09:12 070 20 gusting 31 -7.8
2020-Jan-17 09:02 060 20 gusting 33 -7.8
2020-Jan-17 08:52 060 20 gusting 33 -7.8
2020-Jan-17 08:43 060 20 gusting 32 -7.7
2020-Jan-17 08:32 060 19 gusting 28 -7.5
2020-Jan-17 08:22 060 20 gusting 34 -7.7
2020-Jan-17 08:12 060 18 gusting 27 -7.4
2020-Jan-17 08:02 060 18 gusting 28 -7.5
2020-Jan-17 07:52 060 19 gusting 33 -7.6
2020-Jan-17 07:42 060 20 gusting 34 -7.5
2020-Jan-17 07:33 060 19 gusting 29 -7.4
2020-Jan-17 07:23 060 19 gusting 28 -7.5
2020-Jan-17 07:13 060 20 gusting 33 -7.5
2020-Jan-17 07:02 060 19 gusting 32 -7.4
2020-Jan-17 06:52 060 20 gusting 32 -7.4
2020-Jan-17 06:42 060 19 gusting 31 -7.3
2020-Jan-17 06:32 060 20 gusting 33 -7.3
2020-Jan-17 06:22 050 18 gusting 38 -7.3
2020-Jan-17 06:12 050 17 gusting 32 -7.2
2020-Jan-17 06:02 050 17 gusting 28 -7.1
2020-Jan-17 05:52 060 17 gusting 27 -7.2
2020-Jan-17 05:42 040 13 gusting 24 -7.2
2020-Jan-17 05:32 050 15 gusting 31 -7.1
2020-Jan-17 04:52 050 17 gusting 27 -6.8
2020-Jan-17 04:42 050 15 gusting 27 -7.1
2020-Jan-17 04:32 050 17 gusting 28 -7.1
2020-Jan-17 04:22 050 17 gusting 27 -7.0
2020-Jan-17 04:13 060 19 gusting 28 -6.9
2020-Jan-17 04:02 050 18 gusting 28 -6.8
2020-Jan-17 03:52 060 18 gusting 31 -6.8
2020-Jan-17 03:42 040 15 gusting 28 -6.8
2020-Jan-17 03:32 050 17 gusting 28 -6.7
2020-Jan-17 03:22 060 18 gusting 31 -6.7
2020-Jan-17 03:12 060 19 gusting 29 -6.7
2020-Jan-17 03:02 060 19 gusting 31 -6.6
2020-Jan-17 02:53 050 18 gusting 28 -6.7
2020-Jan-17 02:42 060 19 gusting 28 -6.6
2020-Jan-17 02:33 050 18 gusting 29 -6.5
2020-Jan-17 02:22 060 18 gusting 28 -6.4
2020-Jan-17 02:12 060 19 gusting 31 -6.5
2020-Jan-17 02:02 060 19 gusting 29 -6.5
2020-Jan-17 01:52 060 18 gusting 29 -6.5
2020-Jan-17 01:42 060 15 gusting 28 -6.5
2020-Jan-17 01:33 060 18 gusting 27 -6.4
2020-Jan-17 01:23 060 18 gusting 29 -6.4
2020-Jan-17 01:13 060 17 gusting 31 -6.6
2020-Jan-17 01:02 060 17 gusting 26 -6.5
2020-Jan-17 00:52 060 15 gusting 29 -6.3
2020-Jan-17 00:42 050 15 gusting 27 -6.4
2020-Jan-17 00:32 060 17 gusting 27 -6.5
2020-Jan-17 00:22 050 17 gusting 28 -6.4
2020-Jan-17 00:12 060 18 gusting 28 -6.5
2020-Jan-16 23:52 060 15 gusting 26 -6.5
2020-Jan-16 23:42 060 15 gusting 27 -6.6
2020-Jan-16 23:32 040 14 gusting 28 -6.4
2020-Jan-16 23:22 050 15 gusting 28 -6.5
2020-Jan-16 23:12 060 17 gusting 31 -6.4
2020-Jan-16 23:02 050 17 gusting 28 -6.5
2020-Jan-16 22:52 050 18 gusting 32 -6.5
2020-Jan-16 22:42 040 17 gusting 34 -6.5
2020-Jan-16 22:33 040 14 gusting 27 -6.4
2020-Jan-16 22:23 050 15 gusting 27 -6.4
2020-Jan-16 22:13 050 15 gusting 29 -6.4
2020-Jan-16 22:02 040 14 gusting 27 -6.4
2020-Jan-16 21:53 040 15 gusting 28 -6.5
2020-Jan-16 21:43 040 15 gusting 29 -6.5
2020-Jan-16 21:33 050 17 gusting 27 -6.4
2020-Jan-16 21:22 050 15 gusting 27 -6.4
2020-Jan-16 21:13 060 18 gusting 31 -6.3
2020-Jan-16 21:03 050 18 gusting 27 -6.4
2020-Jan-16 20:53 050 15 gusting 28 -6.5
2020-Jan-16 20:43 040 17 gusting 27 -6.4
2020-Jan-16 20:33 050 15 gusting 27 -6.2
2020-Jan-16 20:23 050 15 gusting 25 -6.4
2020-Jan-16 20:13 050 18 gusting 28 -6.4
2020-Jan-16 20:03 050 15 gusting 28 -6.4
2020-Jan-16 19:53 050 17 gusting 27 -6.2
2020-Jan-16 19:43 050 17 gusting 27 -6.2
2020-Jan-16 19:33 040 17 gusting 29 -6.2
2020-Jan-16 19:23 030 17 gusting 41 -6.0
2020-Jan-16 19:13 020 20 gusting 39 -5.9
2020-Jan-16 19:03 020 19 gusting 36 -5.9
2020-Jan-16 18:53 050 17 gusting 31 -6.3
2020-Jan-16 18:43 030 17 gusting 34 -6.2
2020-Jan-16 18:33 030 17 gusting 34 -6.3
2020-Jan-16 18:22 030 18 gusting 36 -6.3
2020-Jan-16 18:13 040 18 gusting 35 -6.3
2020-Jan-16 18:03 040 15 gusting 31 -6.5
2020-Jan-16 17:53 050 18 gusting 28 -6.5
2020-Jan-16 17:43 040 17 gusting 28 -6.6
2020-Jan-16 17:33 060 17 gusting 27 -6.6
2020-Jan-16 17:23 030 14 gusting 31 -6.4
2020-Jan-16 17:13 060 18 gusting 29 -6.3
2020-Jan-16 17:03 050 18 gusting 31 -6.3
2020-Jan-16 16:53 060 19 gusting 29 -6.4
2020-Jan-16 16:43 060 19 gusting 29 -6.5
2020-Jan-16 16:33 050 18 gusting 32 -6.2
2020-Jan-16 16:23 060 19 gusting 28 -6.4
2020-Jan-16 16:13 060 17 gusting 29 -6.4
2020-Jan-16 16:03 040 17 gusting 29 -5.8
2020-Jan-16 15:53 030 19 gusting 35 -5.8
2020-Jan-16 15:43 030 20 gusting 34 -6.0
2020-Jan-16 15:33 030 20 gusting 34 -5.9
2020-Jan-16 15:22 060 18 gusting 39 -6.3
2020-Jan-16 15:13 060 17 gusting 29 -6.4
2020-Jan-16 15:02 050 18 gusting 31 -6.5
2020-Jan-16 14:53 050 17 gusting 32 -6.7
2020-Jan-16 14:43 050 17 gusting 29 -6.5
2020-Jan-16 14:33 050 15 gusting 27 -6.6
2020-Jan-16 14:23 060 17 gusting 29 -6.5
2020-Jan-16 14:13 040 21 gusting 41 -6.2
2020-Jan-16 14:02 010 32 gusting 46 -5.9